EWG5MU EDDH-EGLL
Flight info
| Callsign | EWG5MU |
|---|---|
| Flight time | 1h 32m |
| Altitude | 36000 |
| Route | WSN5G WSN N125 ITMIZ DCT PARYD DCT ABNED L980 LOGAN |
| Aircraft | A319/M-SDE3FGHIRWY/LB1 |
Departure
| Time | 2026-04-24 11:44 |
|---|---|
| Airport | Hamburg Helmut Schmidt Airport (EDDH) |
Arrival
| Time | 2026-04-24 13:16 |
|---|---|
| Airport | London Heathrow Airport (EGLL) |
| Time | Latitude | Longitude | Altitude | Speed | Heading |
|---|---|---|---|---|---|
| 2026-04-24 11:16 | 53.63073 | 10.00389 | 49 ft | 0 kts | 93° |
| 2026-04-24 11:37 | 53.63074 | 10.00378 | 48 ft | 2 kts | 93° |
| 2026-04-24 11:38 | 53.63075 | 10.00344 | 48 ft | 3 kts | 93° |
| 2026-04-24 11:38 | 53.63076 | 10.00310 | 48 ft | 3 kts | 93° |
| 2026-04-24 11:38 | 53.63077 | 10.00277 | 48 ft | 3 kts | 94° |
| 2026-04-24 11:38 | 53.63080 | 10.00243 | 48 ft | 3 kts | 106° |
| 2026-04-24 11:39 | 53.63087 | 10.00213 | 44 ft | 3 kts | 129° |
| 2026-04-24 11:39 | 53.63100 | 10.00194 | 47 ft | 2 kts | 169° |
| 2026-04-24 11:39 | 53.63105 | 10.00193 | 46 ft | 0 kts | 176° |
| 2026-04-24 11:41 | 53.63101 | 10.00193 | 47 ft | 4 kts | 180° |
| 2026-04-24 11:41 | 53.63050 | 10.00161 | 48 ft | 10 kts | 209° |
| 2026-04-24 11:41 | 53.62988 | 10.00097 | 47 ft | 10 kts | 213° |
| 2026-04-24 11:42 | 53.62939 | 10.00041 | 48 ft | 2 kts | 220° |
| 2026-04-24 11:42 | 53.62925 | 10.00006 | 48 ft | 5 kts | 241° |
| 2026-04-24 11:42 | 53.62903 | 9.99935 | 47 ft | 9 kts | 243° |
| 2026-04-24 11:42 | 53.62868 | 9.99815 | 45 ft | 14 kts | 246° |
| 2026-04-24 11:43 | 53.62893 | 9.99725 | 45 ft | 0 kts | 334° |
| 2026-04-24 11:43 | 53.62962 | 9.99664 | 45 ft | 38 kts | 332° |
| 2026-04-24 11:43 | 53.63388 | 9.99294 | 47 ft | 99 kts | 333° |
| 2026-04-24 11:43 | 53.64175 | 9.98616 | 87 ft | 147 kts | 333° |
| 2026-04-24 11:44 | 53.65079 | 9.97893 | 681 ft | 145 kts | 331° |
| 2026-04-24 11:44 | 53.66005 | 9.97153 | 1359 ft | 147 kts | 328° |
| 2026-04-24 11:44 | 53.66971 | 9.96316 | 1811 ft | 167 kts | 327° |
| 2026-04-24 11:44 | 53.68067 | 9.95344 | 2196 ft | 189 kts | 328° |
| 2026-04-24 11:45 | 53.69268 | 9.94290 | 2791 ft | 199 kts | 330° |
| 2026-04-24 11:45 | 53.70514 | 9.93206 | 3514 ft | 203 kts | 332° |
| 2026-04-24 11:45 | 53.71519 | 9.91521 | 4204 ft | 214 kts | 296° |
| 2026-04-24 11:45 | 53.71687 | 9.88898 | 4698 ft | 241 kts | 265° |
| 2026-04-24 11:46 | 53.71250 | 9.86105 | 5455 ft | 250 kts | 256° |
| 2026-04-24 11:46 | 53.70624 | 9.83327 | 6185 ft | 262 kts | 253° |
| 2026-04-24 11:46 | 53.69927 | 9.80390 | 6875 ft | 274 kts | 253° |
| 2026-04-24 11:46 | 53.69227 | 9.77362 | 7705 ft | 279 kts | 254° |
| 2026-04-24 11:47 | 53.68544 | 9.74271 | 8563 ft | 283 kts | 255° |
| 2026-04-24 11:47 | 53.67880 | 9.71118 | 9446 ft | 287 kts | 256° |
| 2026-04-24 11:47 | 53.67227 | 9.67912 | 10273 ft | 292 kts | 256° |
| 2026-04-24 11:47 | 53.66573 | 9.64619 | 10853 ft | 305 kts | 256° |
| 2026-04-24 11:48 | 53.65888 | 9.61106 | 11158 ft | 325 kts | 256° |
| 2026-04-24 11:48 | 53.65002 | 9.57526 | 11769 ft | 338 kts | 245° |
| 2026-04-24 11:48 | 53.63671 | 9.54216 | 12504 ft | 344 kts | 238° |
| 2026-04-24 11:48 | 53.62266 | 9.50954 | 13271 ft | 347 kts | 238° |
| 2026-04-24 11:49 | 53.60847 | 9.47649 | 14015 ft | 350 kts | 238° |
| 2026-04-24 11:49 | 53.59417 | 9.44317 | 14688 ft | 352 kts | 238° |
| 2026-04-24 11:49 | 53.57978 | 9.40967 | 15356 ft | 354 kts | 238° |
| 2026-04-24 11:49 | 53.56531 | 9.37599 | 16037 ft | 356 kts | 238° |
| 2026-04-24 11:50 | 53.55074 | 9.34215 | 16698 ft | 358 kts | 237° |
| 2026-04-24 11:50 | 53.53608 | 9.30816 | 17381 ft | 360 kts | 237° |
| 2026-04-24 11:50 | 53.52130 | 9.27394 | 18057 ft | 363 kts | 237° |
| 2026-04-24 11:50 | 53.50642 | 9.23956 | 18678 ft | 365 kts | 237° |
| 2026-04-24 11:51 | 53.49632 | 9.21622 | 19070 ft | 366 kts | 237° |
| 2026-04-24 11:51 | 53.47638 | 9.17020 | 19854 ft | 369 kts | 237° |
| 2026-04-24 11:51 | 53.46616 | 9.14667 | 20253 ft | 370 kts | 237° |
| 2026-04-24 11:51 | 53.45093 | 9.11169 | 20840 ft | 372 kts | 237° |
| 2026-04-24 11:52 | 53.43560 | 9.07656 | 21437 ft | 374 kts | 237° |
| 2026-04-24 11:52 | 53.42014 | 9.04127 | 22011 ft | 376 kts | 237° |
| 2026-04-24 11:52 | 53.40459 | 9.00583 | 22573 ft | 378 kts | 236° |
| 2026-04-24 11:52 | 53.38893 | 8.97022 | 23118 ft | 380 kts | 236° |
| 2026-04-24 11:53 | 53.37323 | 8.93443 | 23684 ft | 382 kts | 237° |
| 2026-04-24 11:53 | 53.35751 | 8.89837 | 24157 ft | 384 kts | 238° |
| 2026-04-24 11:53 | 53.34426 | 8.85966 | 24605 ft | 383 kts | 248° |
| 2026-04-24 11:53 | 53.33473 | 8.81807 | 25041 ft | 384 kts | 252° |
| 2026-04-24 11:54 | 53.32555 | 8.77599 | 25481 ft | 386 kts | 252° |
| 2026-04-24 11:54 | 53.31624 | 8.73379 | 25910 ft | 388 kts | 251° |
| 2026-04-24 11:54 | 53.30681 | 8.69138 | 26342 ft | 390 kts | 251° |
| 2026-04-24 11:54 | 53.29730 | 8.64882 | 26769 ft | 392 kts | 251° |
| 2026-04-24 11:55 | 53.28778 | 8.60606 | 27190 ft | 394 kts | 251° |
| 2026-04-24 11:55 | 53.27826 | 8.56296 | 27607 ft | 396 kts | 251° |
| 2026-04-24 11:55 | 53.26875 | 8.51962 | 28020 ft | 398 kts | 251° |
| 2026-04-24 11:55 | 53.25940 | 8.47596 | 28426 ft | 400 kts | 252° |
| 2026-04-24 11:56 | 53.25061 | 8.43109 | 28840 ft | 402 kts | 253° |
| 2026-04-24 11:56 | 53.24235 | 8.38633 | 29257 ft | 404 kts | 254° |
| 2026-04-24 11:56 | 53.23421 | 8.34129 | 29650 ft | 407 kts | 254° |
| 2026-04-24 11:56 | 53.22601 | 8.29596 | 30041 ft | 409 kts | 254° |
| 2026-04-24 11:57 | 53.21764 | 8.25051 | 30408 ft | 411 kts | 253° |
| 2026-04-24 11:57 | 53.20904 | 8.20489 | 30744 ft | 413 kts | 253° |
| 2026-04-24 11:57 | 53.20030 | 8.15930 | 31094 ft | 414 kts | 252° |
| 2026-04-24 11:57 | 53.19150 | 8.11358 | 31430 ft | 415 kts | 252° |
| 2026-04-24 11:58 | 53.18275 | 8.06773 | 31772 ft | 415 kts | 253° |
| 2026-04-24 11:58 | 53.17405 | 8.02180 | 32170 ft | 414 kts | 253° |
| 2026-04-24 11:58 | 53.16545 | 7.97615 | 32668 ft | 411 kts | 253° |
| 2026-04-24 11:58 | 53.15692 | 7.93088 | 33182 ft | 408 kts | 252° |
| 2026-04-24 11:59 | 53.14840 | 7.88593 | 33690 ft | 405 kts | 252° |
| 2026-04-24 11:59 | 53.13995 | 7.84137 | 34202 ft | 402 kts | 252° |
| 2026-04-24 11:59 | 53.13155 | 7.79714 | 34640 ft | 400 kts | 252° |
| 2026-04-24 11:59 | 53.12312 | 7.75312 | 35033 ft | 398 kts | 252° |
| 2026-04-24 12:00 | 53.11469 | 7.70928 | 35390 ft | 397 kts | 252° |
| 2026-04-24 12:00 | 53.10627 | 7.66549 | 35734 ft | 397 kts | 252° |
| 2026-04-24 12:00 | 53.09754 | 7.62202 | 36074 ft | 396 kts | 250° |
| 2026-04-24 12:00 | 53.08826 | 7.57890 | 36226 ft | 396 kts | 249° |
| 2026-04-24 12:01 | 53.06887 | 7.49361 | 36251 ft | 394 kts | 249° |
| 2026-04-24 12:01 | 53.04944 | 7.40862 | 36253 ft | 393 kts | 249° |
| 2026-04-24 12:02 | 53.02953 | 7.32394 | 36263 ft | 393 kts | 247° |
| 2026-04-24 12:02 | 53.00783 | 7.24068 | 36259 ft | 393 kts | 246° |
| 2026-04-24 12:03 | 52.98567 | 7.15773 | 36258 ft | 393 kts | 246° |
| 2026-04-24 12:03 | 52.96375 | 7.07474 | 36283 ft | 393 kts | 246° |
| 2026-04-24 12:04 | 52.94192 | 6.99113 | 36281 ft | 393 kts | 246° |
| 2026-04-24 12:04 | 52.92009 | 6.90808 | 36285 ft | 393 kts | 245° |
| 2026-04-24 12:05 | 52.89810 | 6.82520 | 36284 ft | 393 kts | 245° |
| 2026-04-24 12:05 | 52.87604 | 6.74239 | 36285 ft | 393 kts | 245° |
| 2026-04-24 12:06 | 52.85396 | 6.65963 | 36293 ft | 393 kts | 245° |
| 2026-04-24 12:06 | 52.83186 | 6.57696 | 36289 ft | 393 kts | 245° |
| 2026-04-24 12:07 | 52.80977 | 6.49443 | 36282 ft | 392 kts | 245° |
| 2026-04-24 12:07 | 52.78758 | 6.41212 | 36289 ft | 392 kts | 245° |
| 2026-04-24 12:08 | 52.76530 | 6.32997 | 36281 ft | 392 kts | 245° |
| 2026-04-24 12:08 | 52.74303 | 6.24788 | 36276 ft | 391 kts | 245° |
| 2026-04-24 12:09 | 52.72073 | 6.16601 | 36280 ft | 391 kts | 244° |
| 2026-04-24 12:09 | 52.69835 | 6.08411 | 36281 ft | 391 kts | 244° |
| 2026-04-24 12:10 | 52.67591 | 6.00244 | 36299 ft | 392 kts | 244° |
| 2026-04-24 12:11 | 52.64209 | 5.87976 | 36293 ft | 392 kts | 244° |
| 2026-04-24 12:11 | 52.61941 | 5.79802 | 36286 ft | 393 kts | 244° |
| 2026-04-24 12:12 | 52.59661 | 5.71582 | 36288 ft | 392 kts | 244° |
| 2026-04-24 12:12 | 52.57391 | 5.63425 | 36291 ft | 392 kts | 244° |
| 2026-04-24 12:13 | 52.55114 | 5.55274 | 36314 ft | 392 kts | 244° |
| 2026-04-24 12:13 | 52.52829 | 5.47145 | 36328 ft | 393 kts | 244° |
| 2026-04-24 12:14 | 52.50530 | 5.38999 | 36313 ft | 393 kts | 244° |
| 2026-04-24 12:14 | 52.48247 | 5.30919 | 36313 ft | 393 kts | 244° |
| 2026-04-24 12:15 | 52.45944 | 5.22773 | 36307 ft | 394 kts | 244° |
| 2026-04-24 12:15 | 52.43631 | 5.14633 | 36308 ft | 394 kts | 244° |
| 2026-04-24 12:16 | 52.41302 | 5.06502 | 36297 ft | 394 kts | 244° |
| 2026-04-24 12:16 | 52.38970 | 4.98380 | 36307 ft | 394 kts | 244° |
| 2026-04-24 12:17 | 52.36632 | 4.90260 | 36320 ft | 395 kts | 244° |
| 2026-04-24 12:17 | 52.34288 | 4.82140 | 36318 ft | 395 kts | 244° |
| 2026-04-24 12:18 | 52.31940 | 4.74018 | 36316 ft | 395 kts | 244° |
| 2026-04-24 12:18 | 52.29583 | 4.65909 | 36294 ft | 395 kts | 244° |
| 2026-04-24 12:19 | 52.27202 | 4.57746 | 36291 ft | 395 kts | 244° |
| 2026-04-24 12:19 | 52.24830 | 4.49655 | 36305 ft | 395 kts | 244° |
| 2026-04-24 12:20 | 52.22455 | 4.41567 | 36308 ft | 395 kts | 244° |
| 2026-04-24 12:20 | 52.20076 | 4.33488 | 36290 ft | 395 kts | 244° |
| 2026-04-24 12:21 | 52.17689 | 4.25406 | 36292 ft | 396 kts | 244° |
| 2026-04-24 12:21 | 52.15295 | 4.17327 | 36300 ft | 396 kts | 244° |
| 2026-04-24 12:22 | 52.12894 | 4.09249 | 36319 ft | 397 kts | 244° |
| 2026-04-24 12:22 | 52.10486 | 4.01176 | 36319 ft | 397 kts | 244° |
| 2026-04-24 12:23 | 52.08077 | 3.93105 | 36317 ft | 397 kts | 243° |
| 2026-04-24 12:23 | 52.05647 | 3.85053 | 36337 ft | 397 kts | 243° |
| 2026-04-24 12:24 | 52.03211 | 3.77011 | 36331 ft | 397 kts | 244° |
| 2026-04-24 12:24 | 52.00775 | 3.68969 | 36332 ft | 397 kts | 244° |
| 2026-04-24 12:25 | 51.98734 | 3.62232 | 36306 ft | 397 kts | 243° |
| 2026-04-24 12:25 | 51.96289 | 3.54196 | 36314 ft | 398 kts | 243° |
| 2026-04-24 12:26 | 51.93835 | 3.46140 | 36319 ft | 399 kts | 243° |
| 2026-04-24 12:26 | 51.91365 | 3.38094 | 36336 ft | 399 kts | 243° |
| 2026-04-24 12:27 | 51.88887 | 3.30051 | 36343 ft | 399 kts | 243° |
| 2026-04-24 12:27 | 51.86403 | 3.22012 | 36345 ft | 399 kts | 243° |
| 2026-04-24 12:28 | 51.84691 | 3.13512 | 36346 ft | 400 kts | 261° |
| 2026-04-24 12:28 | 51.84116 | 3.04549 | 36344 ft | 401 kts | 262° |
| 2026-04-24 12:29 | 51.83529 | 2.95581 | 35907 ft | 401 kts | 262° |
| 2026-04-24 12:29 | 51.83232 | 2.91098 | 35570 ft | 400 kts | 262° |
| 2026-04-24 12:29 | 51.82937 | 2.86637 | 35226 ft | 397 kts | 262° |
| 2026-04-24 12:29 | 51.82643 | 2.82212 | 34887 ft | 395 kts | 262° |
| 2026-04-24 12:30 | 51.82350 | 2.77814 | 34549 ft | 392 kts | 262° |
| 2026-04-24 12:30 | 51.82053 | 2.73442 | 34200 ft | 390 kts | 262° |
| 2026-04-24 12:30 | 51.81755 | 2.69104 | 33817 ft | 387 kts | 262° |
| 2026-04-24 12:30 | 51.81459 | 2.64787 | 33435 ft | 385 kts | 262° |
| 2026-04-24 12:31 | 51.81162 | 2.60439 | 33062 ft | 383 kts | 262° |
| 2026-04-24 12:31 | 51.80869 | 2.56181 | 32695 ft | 381 kts | 262° |
| 2026-04-24 12:31 | 51.80575 | 2.51939 | 32336 ft | 379 kts | 261° |
| 2026-04-24 12:31 | 51.80282 | 2.47727 | 31979 ft | 377 kts | 261° |
| 2026-04-24 12:32 | 51.79991 | 2.43579 | 31630 ft | 375 kts | 261° |
| 2026-04-24 12:32 | 51.79693 | 2.39369 | 31295 ft | 371 kts | 262° |
| 2026-04-24 12:32 | 51.79399 | 2.35245 | 30946 ft | 368 kts | 262° |
| 2026-04-24 12:32 | 51.79102 | 2.31146 | 30615 ft | 366 kts | 261° |
| 2026-04-24 12:33 | 51.78804 | 2.27079 | 30248 ft | 364 kts | 261° |
| 2026-04-24 12:33 | 51.78507 | 2.23015 | 29812 ft | 364 kts | 262° |
| 2026-04-24 12:33 | 51.78229 | 2.18954 | 29424 ft | 364 kts | 262° |
| 2026-04-24 12:33 | 51.77986 | 2.14895 | 29040 ft | 362 kts | 263° |
| 2026-04-24 12:34 | 51.77760 | 2.10852 | 28662 ft | 361 kts | 263° |
| 2026-04-24 12:34 | 51.77542 | 2.06883 | 28292 ft | 359 kts | 263° |
| 2026-04-24 12:34 | 51.77315 | 2.02821 | 27917 ft | 358 kts | 263° |
| 2026-04-24 12:34 | 51.77085 | 1.98837 | 27551 ft | 356 kts | 263° |
| 2026-04-24 12:35 | 51.76849 | 1.94851 | 27193 ft | 360 kts | 262° |
| 2026-04-24 12:35 | 51.76598 | 1.90719 | 26803 ft | 378 kts | 262° |
| 2026-04-24 12:35 | 51.76337 | 1.86468 | 26320 ft | 382 kts | 262° |
| 2026-04-24 12:35 | 51.76073 | 1.82200 | 25852 ft | 382 kts | 262° |
| 2026-04-24 12:36 | 51.75808 | 1.77950 | 25390 ft | 381 kts | 262° |
| 2026-04-24 12:36 | 51.75543 | 1.73701 | 24936 ft | 379 kts | 262° |
| 2026-04-24 12:36 | 51.75278 | 1.69483 | 24491 ft | 378 kts | 262° |
| 2026-04-24 12:36 | 51.75010 | 1.65274 | 24054 ft | 376 kts | 262° |
| 2026-04-24 12:37 | 51.74747 | 1.61087 | 23544 ft | 375 kts | 262° |
| 2026-04-24 12:37 | 51.74489 | 1.56911 | 23029 ft | 373 kts | 262° |
| 2026-04-24 12:37 | 51.74231 | 1.52759 | 22521 ft | 371 kts | 262° |
| 2026-04-24 12:37 | 51.73968 | 1.48624 | 22019 ft | 370 kts | 262° |
| 2026-04-24 12:38 | 51.73702 | 1.44507 | 21531 ft | 368 kts | 262° |
| 2026-04-24 12:38 | 51.73435 | 1.40408 | 21045 ft | 367 kts | 262° |
| 2026-04-24 12:38 | 51.73165 | 1.36273 | 20559 ft | 365 kts | 262° |
| 2026-04-24 12:39 | 51.72366 | 1.24108 | 19169 ft | 362 kts | 262° |
| 2026-04-24 12:39 | 51.72101 | 1.20081 | 18727 ft | 361 kts | 263° |
| 2026-04-24 12:39 | 51.71832 | 1.16069 | 18253 ft | 359 kts | 262° |
| 2026-04-24 12:40 | 51.71560 | 1.12084 | 17773 ft | 356 kts | 262° |
| 2026-04-24 12:40 | 51.71289 | 1.08127 | 17301 ft | 354 kts | 262° |
| 2026-04-24 12:40 | 51.71021 | 1.04191 | 16831 ft | 352 kts | 262° |
| 2026-04-24 12:40 | 51.70755 | 1.00269 | 16375 ft | 351 kts | 263° |
| 2026-04-24 12:41 | 51.70489 | 0.96369 | 15919 ft | 349 kts | 262° |
| 2026-04-24 12:41 | 51.70222 | 0.92488 | 15480 ft | 348 kts | 262° |
| 2026-04-24 12:41 | 51.69954 | 0.88628 | 15041 ft | 346 kts | 262° |
| 2026-04-24 12:41 | 51.69684 | 0.84773 | 14609 ft | 345 kts | 262° |
| 2026-04-24 12:42 | 51.69414 | 0.80940 | 14181 ft | 344 kts | 263° |
| 2026-04-24 12:42 | 51.69141 | 0.77118 | 13707 ft | 343 kts | 262° |
| 2026-04-24 12:42 | 51.68869 | 0.73313 | 13235 ft | 341 kts | 263° |
| 2026-04-24 12:42 | 51.68598 | 0.69520 | 12767 ft | 340 kts | 262° |
| 2026-04-24 12:43 | 51.68329 | 0.65737 | 12310 ft | 339 kts | 263° |
| 2026-04-24 12:43 | 51.68061 | 0.61972 | 11856 ft | 338 kts | 263° |
| 2026-04-24 12:43 | 51.67794 | 0.58225 | 11411 ft | 336 kts | 263° |
| 2026-04-24 12:43 | 51.67524 | 0.54499 | 10971 ft | 335 kts | 263° |
| 2026-04-24 12:44 | 51.67260 | 0.50877 | 10546 ft | 334 kts | 263° |
| 2026-04-24 12:44 | 51.66989 | 0.47143 | 10098 ft | 339 kts | 262° |
| 2026-04-24 12:44 | 51.66707 | 0.43276 | 9620 ft | 351 kts | 262° |
| 2026-04-24 12:44 | 51.66418 | 0.39356 | 9148 ft | 352 kts | 263° |
| 2026-04-24 12:45 | 51.66129 | 0.35465 | 8687 ft | 349 kts | 262° |
| 2026-04-24 12:45 | 51.65840 | 0.31588 | 8374 ft | 348 kts | 262° |
| 2026-04-24 12:45 | 51.65553 | 0.27720 | 8340 ft | 350 kts | 262° |
| 2026-04-24 12:45 | 51.65260 | 0.23834 | 8351 ft | 348 kts | 262° |
| 2026-04-24 12:46 | 51.64966 | 0.19961 | 8351 ft | 348 kts | 262° |
| 2026-04-24 12:46 | 51.64669 | 0.16049 | 8353 ft | 347 kts | 262° |
| 2026-04-24 12:46 | 51.64444 | 0.12170 | 8353 ft | 349 kts | 266° |
| 2026-04-24 12:46 | 51.64302 | 0.08275 | 8352 ft | 349 kts | 266° |
| 2026-04-24 12:47 | 51.64169 | 0.04370 | 8354 ft | 350 kts | 266° |
| 2026-04-24 12:47 | 51.64033 | 0.00453 | 8354 ft | 350 kts | 266° |
| 2026-04-24 12:47 | 51.63901 | -0.03440 | 8371 ft | 347 kts | 266° |
| 2026-04-24 12:47 | 51.63775 | -0.07324 | 8372 ft | 348 kts | 266° |
| 2026-04-24 12:48 | 51.63654 | -0.11212 | 8374 ft | 348 kts | 266° |
| 2026-04-24 12:48 | 51.63540 | -0.15046 | 8376 ft | 334 kts | 266° |
| 2026-04-24 12:48 | 51.63432 | -0.18685 | 8379 ft | 316 kts | 266° |
| 2026-04-24 12:48 | 51.63329 | -0.22126 | 8379 ft | 300 kts | 266° |
| 2026-04-24 12:49 | 51.63234 | -0.25393 | 8376 ft | 285 kts | 266° |
| 2026-04-24 12:49 | 51.63143 | -0.28496 | 8380 ft | 272 kts | 266° |
| 2026-04-24 12:49 | 51.63057 | -0.31470 | 8380 ft | 262 kts | 266° |
| 2026-04-24 12:49 | 51.62980 | -0.34386 | 8382 ft | 260 kts | 266° |
| 2026-04-24 12:50 | 51.62899 | -0.37291 | 8328 ft | 260 kts | 265° |
| 2026-04-24 12:50 | 51.62824 | -0.40213 | 8328 ft | 262 kts | 266° |
| 2026-04-24 12:50 | 51.62751 | -0.43135 | 8330 ft | 262 kts | 266° |
| 2026-04-24 12:50 | 51.62671 | -0.46050 | 8327 ft | 259 kts | 266° |
| 2026-04-24 12:51 | 51.62590 | -0.48949 | 8327 ft | 261 kts | 266° |
| 2026-04-24 12:51 | 51.62503 | -0.51863 | 8329 ft | 259 kts | 264° |
| 2026-04-24 12:51 | 51.62305 | -0.54732 | 8207 ft | 257 kts | 262° |
| 2026-04-24 12:51 | 51.62073 | -0.57578 | 7917 ft | 257 kts | 261° |
| 2026-04-24 12:52 | 51.61843 | -0.60431 | 7636 ft | 257 kts | 261° |
| 2026-04-24 12:52 | 51.61610 | -0.63267 | 7370 ft | 256 kts | 261° |
| 2026-04-24 12:52 | 51.61380 | -0.66101 | 7075 ft | 255 kts | 261° |
| 2026-04-24 12:52 | 51.61035 | -0.68889 | 6803 ft | 254 kts | 250° |
| 2026-04-24 12:53 | 51.60419 | -0.71526 | 6540 ft | 251 kts | 246° |
| 2026-04-24 12:53 | 51.59768 | -0.74130 | 6279 ft | 249 kts | 246° |
| 2026-04-24 12:53 | 51.59101 | -0.76721 | 5990 ft | 247 kts | 246° |
| 2026-04-24 12:53 | 51.58442 | -0.79282 | 5652 ft | 249 kts | 246° |
| 2026-04-24 12:54 | 51.57765 | -0.81837 | 5364 ft | 248 kts | 242° |
| 2026-04-24 12:54 | 51.56668 | -0.83860 | 5178 ft | 236 kts | 209° |
| 2026-04-24 12:54 | 51.55180 | -0.84660 | 5042 ft | 219 kts | 186° |
| 2026-04-24 12:54 | 51.53707 | -0.84911 | 4913 ft | 208 kts | 180° |
| 2026-04-24 12:55 | 51.52291 | -0.85127 | 4775 ft | 201 kts | 181° |
| 2026-04-24 12:55 | 51.50935 | -0.85322 | 4613 ft | 192 kts | 180° |
| 2026-04-24 12:55 | 51.49605 | -0.85499 | 4359 ft | 192 kts | 181° |
| 2026-04-24 12:55 | 51.48280 | -0.85603 | 4097 ft | 188 kts | 171° |
| 2026-04-24 12:56 | 51.47167 | -0.84678 | 4000 ft | 182 kts | 129° |
| 2026-04-24 12:56 | 51.46746 | -0.82836 | 4000 ft | 179 kts | 90° |
| 2026-04-24 12:56 | 51.47072 | -0.80940 | 3965 ft | 180 kts | 60° |
| 2026-04-24 12:56 | 51.47682 | -0.79204 | 3789 ft | 177 kts | 76° |
| 2026-04-24 12:57 | 51.47668 | -0.77903 | 3689 ft | 177 kts | 98° |
| 2026-04-24 12:57 | 51.47574 | -0.75288 | 3385 ft | 176 kts | 87° |
| 2026-04-24 12:57 | 51.47599 | -0.73990 | 3244 ft | 175 kts | 88° |
| 2026-04-24 12:57 | 51.47623 | -0.72035 | 2996 ft | 170 kts | 89° |
| 2026-04-24 12:58 | 51.47639 | -0.70146 | 2783 ft | 170 kts | 89° |
| 2026-04-24 12:58 | 51.47657 | -0.68237 | 2470 ft | 173 kts | 89° |
| 2026-04-24 12:58 | 51.47658 | -0.66302 | 2357 ft | 175 kts | 89° |
| 2026-04-24 12:58 | 51.47667 | -0.64379 | 2116 ft | 170 kts | 89° |
| 2026-04-24 12:59 | 51.47679 | -0.62553 | 1899 ft | 149 kts | 89° |
| 2026-04-24 12:59 | 51.47688 | -0.60899 | 1692 ft | 152 kts | 87° |
| 2026-04-24 12:59 | 51.47703 | -0.59236 | 1491 ft | 144 kts | 87° |
| 2026-04-24 12:59 | 51.47714 | -0.57710 | 1207 ft | 131 kts | 89° |
| 2026-04-24 13:00 | 51.47716 | -0.56261 | 1057 ft | 129 kts | 88° |
| 2026-04-24 13:00 | 51.47720 | -0.54826 | 861 ft | 127 kts | 87° |
| 2026-04-24 13:00 | 51.47727 | -0.53426 | 721 ft | 129 kts | 88° |
| 2026-04-24 13:00 | 51.47737 | -0.51962 | 583 ft | 134 kts | 88° |
| 2026-04-24 13:01 | 51.47740 | -0.50499 | 398 ft | 128 kts | 89° |
| 2026-04-24 13:01 | 51.47731 | -0.48984 | 682 ft | 141 kts | 89° |
| 2026-04-24 13:01 | 51.47723 | -0.47341 | 1437 ft | 151 kts | 89° |
| 2026-04-24 13:01 | 51.47719 | -0.45549 | 2003 ft | 169 kts | 89° |
| 2026-04-24 13:02 | 51.47724 | -0.43575 | 2492 ft | 185 kts | 90° |
| 2026-04-24 13:02 | 51.47745 | -0.41435 | 2929 ft | 197 kts | 89° |
| 2026-04-24 13:02 | 51.47790 | -0.39220 | 2999 ft | 200 kts | 83° |
| 2026-04-24 13:02 | 51.48393 | -0.37242 | 3002 ft | 202 kts | 47° |
| 2026-04-24 13:03 | 51.49530 | -0.35845 | 3005 ft | 204 kts | 36° |
| 2026-04-24 13:03 | 51.50822 | -0.34907 | 3007 ft | 210 kts | 10° |
| 2026-04-24 13:03 | 51.52254 | -0.35345 | 3193 ft | 218 kts | 333° |
| 2026-04-24 13:03 | 51.53365 | -0.37048 | 3454 ft | 226 kts | 309° |
| 2026-04-24 13:04 | 51.54309 | -0.39180 | 3657 ft | 240 kts | 306° |
| 2026-04-24 13:04 | 51.55263 | -0.41402 | 3896 ft | 243 kts | 306° |
| 2026-04-24 13:04 | 51.56225 | -0.43628 | 3987 ft | 242 kts | 306° |
| 2026-04-24 13:04 | 51.57185 | -0.45854 | 4007 ft | 243 kts | 306° |
| 2026-04-24 13:05 | 51.58141 | -0.48114 | 4004 ft | 245 kts | 306° |
| 2026-04-24 13:05 | 51.59095 | -0.50369 | 4009 ft | 244 kts | 303° |
| 2026-04-24 13:05 | 51.59609 | -0.52956 | 4010 ft | 247 kts | 273° |
| 2026-04-24 13:05 | 51.59594 | -0.55713 | 4009 ft | 246 kts | 267° |
| 2026-04-24 13:06 | 51.59496 | -0.58434 | 4008 ft | 244 kts | 266° |
| 2026-04-24 13:06 | 51.59389 | -0.61179 | 4015 ft | 246 kts | 266° |
| 2026-04-24 13:06 | 51.59284 | -0.63908 | 4006 ft | 244 kts | 266° |
| 2026-04-24 13:06 | 51.59178 | -0.66615 | 4004 ft | 242 kts | 266° |
| 2026-04-24 13:07 | 51.59069 | -0.69314 | 4006 ft | 244 kts | 266° |
| 2026-04-24 13:07 | 51.58963 | -0.72043 | 4012 ft | 245 kts | 266° |
| 2026-04-24 13:07 | 51.58854 | -0.74773 | 4003 ft | 245 kts | 266° |
| 2026-04-24 13:07 | 51.58537 | -0.77443 | 3991 ft | 240 kts | 243° |
| 2026-04-24 13:08 | 51.57499 | -0.79384 | 3993 ft | 218 kts | 208° |
| 2026-04-24 13:08 | 51.56164 | -0.80051 | 4031 ft | 197 kts | 185° |
| 2026-04-24 13:08 | 51.54813 | -0.80278 | 4001 ft | 191 kts | 180° |
| 2026-04-24 13:09 | 51.52175 | -0.80681 | 3996 ft | 189 kts | 181° |
| 2026-04-24 13:09 | 51.50852 | -0.80854 | 4008 ft | 192 kts | 180° |
| 2026-04-24 13:09 | 51.49536 | -0.80827 | 3994 ft | 187 kts | 161° |
| 2026-04-24 13:09 | 51.48418 | -0.79845 | 3847 ft | 182 kts | 133° |
| 2026-04-24 13:10 | 51.47742 | -0.78175 | 3687 ft | 179 kts | 107° |
| 2026-04-24 13:10 | 51.47594 | -0.76249 | 3497 ft | 173 kts | 89° |
| 2026-04-24 13:10 | 51.47610 | -0.74350 | 3276 ft | 162 kts | 88° |
| 2026-04-24 13:10 | 51.47623 | -0.72592 | 3077 ft | 156 kts | 89° |
| 2026-04-24 13:11 | 51.47635 | -0.70867 | 2874 ft | 154 kts | 89° |
| 2026-04-24 13:11 | 51.47645 | -0.69142 | 2658 ft | 153 kts | 89° |
| 2026-04-24 13:11 | 51.47655 | -0.67443 | 2449 ft | 151 kts | 89° |
| 2026-04-24 13:11 | 51.47665 | -0.65761 | 2255 ft | 151 kts | 89° |
| 2026-04-24 13:12 | 51.47674 | -0.64098 | 2039 ft | 149 kts | 89° |
| 2026-04-24 13:12 | 51.47683 | -0.62467 | 1836 ft | 149 kts | 88° |
| 2026-04-24 13:12 | 51.47691 | -0.60793 | 1639 ft | 148 kts | 89° |
| 2026-04-24 13:12 | 51.47699 | -0.59257 | 1454 ft | 130 kts | 88° |
| 2026-04-24 13:13 | 51.47706 | -0.57838 | 1272 ft | 125 kts | 88° |
| 2026-04-24 13:13 | 51.47712 | -0.56463 | 1103 ft | 125 kts | 88° |
| 2026-04-24 13:13 | 51.47719 | -0.55090 | 939 ft | 124 kts | 89° |
| 2026-04-24 13:13 | 51.47725 | -0.53701 | 776 ft | 125 kts | 89° |
| 2026-04-24 13:14 | 51.47731 | -0.52309 | 606 ft | 125 kts | 88° |
| 2026-04-24 13:14 | 51.47737 | -0.50917 | 433 ft | 122 kts | 89° |
| 2026-04-24 13:14 | 51.47744 | -0.49544 | 271 ft | 123 kts | 86° |
| 2026-04-24 13:14 | 51.47749 | -0.48196 | 110 ft | 119 kts | 87° |
| 2026-04-24 13:15 | 51.47756 | -0.47059 | 89 ft | 81 kts | 90° |
| 2026-04-24 13:15 | 51.47759 | -0.46356 | 89 ft | 58 kts | 89° |
| 2026-04-24 13:15 | 51.47761 | -0.45667 | 85 ft | 66 kts | 89° |
| 2026-04-24 13:15 | 51.47765 | -0.44894 | 89 ft | 66 kts | 90° |
| 2026-04-24 13:16 | 51.47695 | -0.44374 | 89 ft | 42 kts | 120° |
| 2026-04-24 13:16 | 51.47638 | -0.44234 | 89 ft | 0 kts | 159° |
| 2026-04-24 13:16 | 51.47630 | -0.44232 | 88 ft | 3 kts | 172° |
| 2026-04-24 13:17 | 51.47628 | -0.44232 | 88 ft | 0 kts | 176° |
| 2026-04-24 13:18 | 51.47609 | -0.44241 | 87 ft | 7 kts | 210° |
| 2026-04-24 13:19 | 51.47600 | -0.44331 | 87 ft | 11 kts | 270° |
| 2026-04-24 13:19 | 51.47599 | -0.44486 | 87 ft | 16 kts | 269° |
| 2026-04-24 13:19 | 51.47598 | -0.44556 | 87 ft | 2 kts | 268° |
| 2026-04-24 13:19 | 51.47598 | -0.44595 | 87 ft | 5 kts | 268° |
| 2026-04-24 13:20 | 51.47554 | -0.44661 | 89 ft | 13 kts | 181° |
| 2026-04-24 13:20 | 51.47478 | -0.44570 | 88 ft | 15 kts | 154° |
| 2026-04-24 13:20 | 51.47363 | -0.44562 | 87 ft | 18 kts | 179° |
| 2026-04-24 13:20 | 51.47231 | -0.44560 | 87 ft | 20 kts | 180° |
| 2026-04-24 13:21 | 51.47092 | -0.44560 | 87 ft | 13 kts | 180° |
| 2026-04-24 13:21 | 51.46991 | -0.44559 | 87 ft | 16 kts | 179° |
| 2026-04-24 13:21 | 51.46874 | -0.44557 | 87 ft | 15 kts | 179° |
| 2026-04-24 13:21 | 51.46821 | -0.44591 | 88 ft | 9 kts | 263° |
| 2026-04-24 13:22 | 51.46820 | -0.44676 | 88 ft | 3 kts | 266° |
| 2026-04-24 13:22 | 51.46820 | -0.44684 | 87 ft | 0 kts | 266° |